createdAt,value
2018-05-06T00:00:01.123Z,86.78
2018-05-06T00:01:01.110Z,86.11
2018-05-06T00:02:00.843Z,85.74
2018-05-06T00:03:00.824Z,86.68
2018-05-06T00:04:00.813Z,86.87
2018-05-06T00:05:01.059Z,87.73
2018-05-06T00:06:00.791Z,87.16
2018-05-06T00:07:01.033Z,87.63
2018-05-06T00:08:01.017Z,88.1
2018-05-06T00:09:01.008Z,86.11
2018-05-06T00:10:00.990Z,84.78
2018-05-06T00:11:00.720Z,84.22
2018-05-06T00:12:00.964Z,84.03
2018-05-06T00:13:00.994Z,85.07
2018-05-06T00:14:00.939Z,84.98
2018-05-06T00:15:00.922Z,87.54
2018-05-06T00:16:00.654Z,87.63
2018-05-06T00:17:00.905Z,86.68
2018-05-06T00:18:00.889Z,86.68
2018-05-06T00:19:00.871Z,86.4
2018-05-06T00:20:00.855Z,87.92
2018-05-06T00:21:00.843Z,87.73
2018-05-06T00:22:00.832Z,86.59
2018-05-06T00:23:00.817Z,86.02
2018-05-06T00:24:00.801Z,87.35
2018-05-06T00:25:00.794Z,87.45
2018-05-06T00:26:00.783Z,85.45
2018-05-06T00:27:00.507Z,83.74
2018-05-06T00:28:00.750Z,83.55
2018-05-06T00:29:00.738Z,83.17
2018-05-06T00:30:00.727Z,81.94
2018-05-06T00:31:00.710Z,81.94
2018-05-06T00:32:00.697Z,81.75
2018-05-06T00:33:00.428Z,82.13
2018-05-06T00:34:00.754Z,82.7
2018-05-06T00:35:00.658Z,83.36
2018-05-06T00:36:00.642Z,81.71
2018-05-06T00:37:00.706Z,82.94
2018-05-06T00:38:00.617Z,81.33
2018-05-06T00:39:00.344Z,81.05
2018-05-06T00:40:00.332Z,80
2018-05-06T00:41:00.324Z,82.09
2018-05-06T00:42:00.562Z,82.56
2018-05-06T00:43:00.548Z,81.9
2018-05-06T00:44:00.278Z,82.85
2018-05-06T00:45:00.523Z,82.85
2018-05-06T00:46:00.251Z,80
2018-05-06T00:47:00.496Z,79.34
2018-05-06T00:48:00.481Z,81.43
2018-05-06T00:49:00.468Z,82.85
2018-05-06T00:50:00.456Z,83.7
2018-05-06T00:51:00.185Z,82.28
2018-05-06T00:52:00.426Z,81.62
2018-05-06T00:53:00.159Z,82.56
2018-05-06T00:54:00.398Z,82.56
2018-05-06T00:55:00.386Z,81.99
2018-05-06T00:56:00.117Z,82.47
2018-05-06T00:57:00.359Z,83.23
2018-05-06T00:58:00.348Z,82.94
2018-05-06T00:59:00.332Z,85.69
2018-05-06T01:00:00.320Z,87.59
2018-05-06T01:01:00.049Z,88.06
2018-05-06T01:02:00.296Z,89.2
2018-05-06T01:03:00.023Z,86.45
2018-05-06T01:04:00.263Z,86.35
2018-05-06T01:05:00.249Z,86.35
2018-05-06T01:06:00.248Z,88.73
2018-05-06T01:07:00.225Z,90.91
2018-05-06T01:08:00.210Z,90.72
2018-05-06T01:09:00.204Z,91
2018-05-06T01:10:00.189Z,90.91
2018-05-06T01:11:00.171Z,90.81
2018-05-06T01:12:00.157Z,87.21
2018-05-06T01:13:00.144Z,86.35
2018-05-06T01:14:00.128Z,84.94
2018-05-06T01:15:00.116Z,84.17
2018-05-06T01:16:00.107Z,81.71
2018-05-06T01:16:59.828Z,81.71
2018-05-06T01:18:00.076Z,79.91
2018-05-06T01:19:00.058Z,79.82
2018-05-06T01:20:00.051Z,81.33
2018-05-06T01:20:59.779Z,81.99
2018-05-06T01:22:00.020Z,81.14
2018-05-06T01:23:00.006Z,81.99
2018-05-06T01:23:59.733Z,81.33
2018-05-06T01:24:59.719Z,79.91
2018-05-06T01:25:59.706Z,81.05
2018-05-06T01:26:59.949Z,81.62
2018-05-06T01:27:59.680Z,82.09
2018-05-06T01:28:59.922Z,80
2018-05-06T01:29:59.651Z,79.25
2018-05-06T01:30:59.896Z,80.76
2018-05-06T01:31:59.881Z,81.43
2018-05-06T01:32:59.873Z,81.05
2018-05-06T01:33:59.851Z,80.44
2018-05-06T01:34:59.840Z,79.06
2018-05-06T01:35:59.823Z,80.67
2018-05-06T01:36:59.810Z,81.33
2018-05-06T01:37:59.795Z,82.28
2018-05-06T01:38:59.527Z,82.52
2018-05-06T01:39:59.771Z,83
2018-05-06T01:40:59.498Z,82.71
2018-05-06T01:41:59.484Z,82.81
2018-05-06T01:42:59.728Z,83.66
2018-05-06T01:43:59.455Z,82.43
2018-05-06T01:44:59.697Z,82.33
2018-05-06T01:45:59.685Z,81.57
2018-05-06T01:46:59.671Z,82.24
2018-05-06T01:47:59.661Z,82.33
2018-05-06T01:48:59.644Z,81.01
2018-05-06T01:49:59.628Z,81.67
2018-05-06T01:50:59.622Z,82.52
2018-05-06T01:51:59.342Z,82.33
2018-05-06T01:52:59.330Z,82.9
2018-05-06T01:53:59.318Z,82.71
2018-05-06T01:54:59.301Z,82.9
2018-05-06T01:55:59.545Z,82.71
2018-05-06T01:56:59.275Z,82.52
2018-05-06T01:57:59.519Z,81.38
2018-05-06T01:58:59.506Z,81.29
2018-05-06T01:59:59.232Z,81.29
2018-05-06T02:00:59.482Z,80.63
2018-05-06T02:01:59.205Z,80.25
2018-05-06T02:02:59.189Z,80.91
2018-05-06T02:03:59.430Z,81.1
2018-05-06T02:04:59.420Z,81.67
2018-05-06T02:05:59.403Z,82.05
2018-05-06T02:06:59.132Z,81.95
2018-05-06T02:07:59.383Z,82.52
2018-05-06T02:08:59.359Z,82.52
2018-05-06T02:09:59.345Z,82.24
2018-05-06T02:10:59.331Z,82.05
2018-05-06T02:11:59.406Z,81.95
2018-05-06T02:12:59.305Z,82.62
2018-05-06T02:13:59.032Z,81.95
2018-05-06T02:14:59.273Z,82.05
2018-05-06T02:15:59.267Z,82.81
2018-05-06T02:16:59.252Z,82.81
2018-05-06T02:17:59.233Z,83
2018-05-06T02:18:59.220Z,82.14
2018-05-06T02:19:59.206Z,81.76
2018-05-06T02:20:59.190Z,81.95
2018-05-06T02:21:59.177Z,81.57
2018-05-06T02:22:58.906Z,81.2
2018-05-06T02:23:59.155Z,81.2
2018-05-06T02:24:58.875Z,80.82
2018-05-06T02:25:59.128Z,80.25
2018-05-06T02:26:59.104Z,80.06
2018-05-06T02:27:59.089Z,78.92
2018-05-06T02:28:59.075Z,79.39
2018-05-06T02:29:58.809Z,79.21
2018-05-06T02:30:59.048Z,79.39
2018-05-06T02:31:59.031Z,79.49
2018-05-06T02:32:59.025Z,79.39
2018-05-06T02:33:58.753Z,79.49
2018-05-06T02:34:58.990Z,79.36
2018-05-06T02:35:58.980Z,78.88
2018-05-06T02:36:58.966Z,79.3
2018-05-06T02:37:58.947Z,79.3
2018-05-06T02:38:58.960Z,78.5
2018-05-06T02:39:58.661Z,78.03
2018-05-06T02:40:58.904Z,77.59
2018-05-06T02:41:58.889Z,78.22
2018-05-06T02:42:58.877Z,78.03
2018-05-06T02:43:58.862Z,77.65
2018-05-06T02:44:58.850Z,77.88
2018-05-06T02:45:58.832Z,77.75
2018-05-06T02:46:58.562Z,77.84
2018-05-06T02:47:58.545Z,77.5
2018-05-06T02:48:58.791Z,78.54
2018-05-06T02:49:58.771Z,78.26
2018-05-06T02:50:58.798Z,78.03
2018-05-06T02:51:58.487Z,76.89
2018-05-06T02:52:58.732Z,76.42
2018-05-06T02:53:58.729Z,75.38
2018-05-06T02:54:58.701Z,74.52
2018-05-06T02:55:58.437Z,73.96
2018-05-06T02:56:58.417Z,74.62
2018-05-06T02:57:58.664Z,75.09
2018-05-06T02:58:58.643Z,73.77
2018-05-06T02:59:58.626Z,74.37
2018-05-06T03:00:58.612Z,75.04
2018-05-06T03:01:58.600Z,74.37
2018-05-06T03:02:58.584Z,73.33
2018-05-06T03:03:58.571Z,73.05
2018-05-06T03:04:58.299Z,74.28
2018-05-06T03:05:58.540Z,75.51
2018-05-06T03:06:58.523Z,76.65
2018-05-06T03:07:58.511Z,76.36
2018-05-06T03:08:58.494Z,76.84
2018-05-06T03:09:58.229Z,76.55
2018-05-06T03:10:58.210Z,76.74
2018-05-06T03:11:58.453Z,77.31
2018-05-06T03:12:58.182Z,75.7
2018-05-06T03:13:58.430Z,75.04
2018-05-06T03:14:58.411Z,73.71
2018-05-06T03:15:58.395Z,72.19
2018-05-06T03:16:58.384Z,72.67
2018-05-06T03:17:58.370Z,70.39
2018-05-06T03:18:58.404Z,70.07
2018-05-06T03:19:58.339Z,70.3
2018-05-06T03:20:58.322Z,68.02
2018-05-06T03:21:58.306Z,67.55
2018-05-06T03:22:58.297Z,68.31
2018-05-06T03:23:58.022Z,68.21
2018-05-06T03:24:58.265Z,68.79
2018-05-06T03:25:58.250Z,69.92
2018-05-06T03:26:58.235Z,70.01
2018-05-06T03:27:58.223Z,70.11
2018-05-06T03:28:58.204Z,70.58
2018-05-06T03:29:58.195Z,69.92
2018-05-06T03:30:57.922Z,68.4
2018-05-06T03:31:58.163Z,68.4
2018-05-06T03:32:58.147Z,68.69
2018-05-06T03:33:58.131Z,69.17
2018-05-06T03:34:58.118Z,67.36
2018-05-06T03:35:57.849Z,66.89
2018-05-06T03:36:57.833Z,66.8
2018-05-06T03:37:58.074Z,68.31
2018-05-06T03:38:58.060Z,69.26
2018-05-06T03:39:58.045Z,69.07
2018-05-06T03:40:58.029Z,70.01
2018-05-06T03:41:58.018Z,69.54
2018-05-06T03:42:58.001Z,69.73
2018-05-06T03:43:57.730Z,69.54
2018-05-06T03:44:57.977Z,70.39
2018-05-06T03:45:57.957Z,70.2
2018-05-06T03:46:57.943Z,70.87
2018-05-06T03:47:57.934Z,72.77
2018-05-06T03:48:57.912Z,73.8
2018-05-06T03:49:57.900Z,73.77
2018-05-06T03:50:57.892Z,72.19
2018-05-06T03:51:57.873Z,70.78
2018-05-06T03:52:57.857Z,69.35
2018-05-06T03:53:57.840Z,69.17
2018-05-06T03:54:57.827Z,68.84
2018-05-06T03:55:57.554Z,69.92
2018-05-06T03:56:57.544Z,71.21
2018-05-06T03:57:57.849Z,70.87
2018-05-06T03:58:57.767Z,70.11
2018-05-06T03:59:57.751Z,68.79
2018-05-06T04:00:57.737Z,67.08
2018-05-06T04:01:57.466Z,66.51
2018-05-06T04:02:57.706Z,65.75
2018-05-06T04:03:57.438Z,66.41
2018-05-06T04:04:57.422Z,66.99
2018-05-06T04:05:57.664Z,65.47
2018-05-06T04:06:57.649Z,65.37
2018-05-06T04:07:57.641Z,65.37
2018-05-06T04:08:57.619Z,65.56
2018-05-06T04:09:57.625Z,65.75
2018-05-06T04:10:57.593Z,66.22
2018-05-06T04:11:57.638Z,66.8
2018-05-06T04:12:57.564Z,66.6
2018-05-06T04:13:57.552Z,63.57
2018-05-06T04:14:57.279Z,62.82
2018-05-06T04:15:57.524Z,63.39
2018-05-06T04:16:57.506Z,64.04
2018-05-06T04:17:57.490Z,64.42
2018-05-06T04:18:57.478Z,65.66
2018-05-06T04:19:57.207Z,66.7
2018-05-06T04:20:57.447Z,68.12
2018-05-06T04:21:57.177Z,68.5
2018-05-06T04:22:57.421Z,68.4
2018-05-06T04:23:57.407Z,68.88
2018-05-06T04:24:57.396Z,68.98
2018-05-06T04:25:57.383Z,69.26
2018-05-06T04:26:57.596Z,69.82
2018-05-06T04:27:57.351Z,70.58
2018-05-06T04:28:57.332Z,70.87
2018-05-06T04:29:57.319Z,71.15
2018-05-06T04:30:57.305Z,72
2018-05-06T04:31:57.288Z,72.29
2018-05-06T04:32:57.274Z,72.19
2018-05-06T04:33:57.005Z,70.05
2018-05-06T04:34:56.990Z,67.77
2018-05-06T04:35:57.233Z,67.21
2018-05-06T04:36:57.218Z,67.11
2018-05-06T04:37:57.204Z,65.97
2018-05-06T04:38:56.933Z,65.22
2018-05-06T04:39:57.172Z,65.31
2018-05-06T04:40:57.160Z,66.16
2018-05-06T04:41:57.147Z,66.54
2018-05-06T04:42:56.875Z,65.41
2018-05-06T04:43:57.118Z,65.12
2018-05-06T04:44:57.105Z,64.17
2018-05-06T04:45:57.090Z,63.51
2018-05-06T04:46:56.818Z,61.9
2018-05-06T04:47:56.802Z,61.14
2018-05-06T04:48:57.046Z,61.8
2018-05-06T04:49:56.779Z,62.75
2018-05-06T04:50:56.761Z,62.75
2018-05-06T04:51:57.009Z,63.6
2018-05-06T04:52:56.992Z,65.41
2018-05-06T04:53:56.981Z,65.69
2018-05-06T04:54:56.704Z,66.35
2018-05-06T04:55:56.948Z,66.83
2018-05-06T04:56:56.940Z,67.02
2018-05-06T04:57:56.921Z,66.93
2018-05-06T04:58:56.649Z,66.16
2018-05-06T04:59:56.892Z,65.88
2018-05-06T05:00:56.881Z,65.53
2018-05-06T05:01:56.863Z,65.22
2018-05-06T05:02:56.594Z,65.69
2018-05-06T05:03:56.839Z,66.2
2018-05-06T05:04:56.821Z,67.52
2018-05-06T05:05:56.808Z,68.29
2018-05-06T05:06:56.539Z,69.04
2018-05-06T05:07:56.781Z,69.8
2018-05-06T05:08:56.511Z,70.94
2018-05-06T05:09:56.500Z,71.89
2018-05-06T05:10:56.741Z,73.79
2018-05-06T05:11:56.726Z,74.26
2018-05-06T05:12:56.714Z,74.45
2018-05-06T05:13:56.443Z,75.21
2018-05-06T05:14:56.683Z,75.68
2018-05-06T05:15:56.672Z,75.78
2018-05-06T05:16:56.663Z,76.34
2018-05-06T05:17:56.647Z,77.01
2018-05-06T05:18:56.632Z,77.58
2018-05-06T05:19:56.622Z,78.95
2018-05-06T05:20:56.693Z,77.9
2018-05-06T05:21:56.592Z,76.67
2018-05-06T05:22:56.586Z,75.72
2018-05-06T05:23:56.566Z,75.81
2018-05-06T05:24:56.563Z,75.81
2018-05-06T05:25:56.283Z,77.14
2018-05-06T05:26:56.527Z,78.95
2018-05-06T05:27:56.518Z,79.71
2018-05-06T05:28:56.502Z,79.8
2018-05-06T05:29:56.488Z,80.18
2018-05-06T05:30:56.475Z,81.41
2018-05-06T05:31:56.205Z,81.6
2018-05-06T05:32:56.450Z,80.84
2018-05-06T05:33:56.184Z,80.51
2018-05-06T05:34:56.422Z,80.98
2018-05-06T05:35:56.408Z,80.32
2018-05-06T05:36:56.398Z,82.5
2018-05-06T05:37:56.382Z,86.68
2018-05-06T05:38:56.373Z,89.05
2018-05-06T05:39:56.356Z,89.24
2018-05-06T05:40:56.088Z,91.52
2018-05-06T05:41:56.074Z,93.04
2018-05-06T05:42:56.319Z,94.18
2018-05-06T05:43:56.307Z,94.37
2018-05-06T05:44:56.293Z,94.84
2018-05-06T05:45:56.294Z,95.79
2018-05-06T05:46:56.270Z,95.7
2018-05-06T05:47:56.431Z,96.55
2018-05-06T05:48:56.243Z,96.74
2018-05-06T05:49:55.985Z,94.46
2018-05-06T05:50:55.963Z,96.26
2018-05-06T05:51:56.209Z,97.22
2018-05-06T05:52:56.195Z,97.12
2018-05-06T05:53:56.192Z,99.07
2018-05-06T05:54:56.189Z,99.99
2018-05-06T05:55:56.160Z,99.73
2018-05-06T05:56:56.147Z,99.99
2018-05-06T05:57:56.134Z,99.99
2018-05-06T05:58:55.865Z,99.99
2018-05-06T05:59:55.856Z,99.99
2018-05-06T06:00:56.096Z,99.3
2018-05-06T06:01:56.087Z,99.78
2018-05-06T06:02:55.824Z,99.11
2018-05-06T06:03:55.803Z,98.64
2018-05-06T06:04:56.050Z,98.07
2018-05-06T06:05:56.039Z,97.41
2018-05-06T06:06:56.024Z,97.69
2018-05-06T06:07:56.014Z,97.31
2018-05-06T06:08:55.745Z,97.97
2018-05-06T06:09:55.990Z,99.99
2018-05-06T06:10:55.721Z,99.99
2018-05-06T06:11:56.040Z,99.99
2018-05-06T06:12:55.959Z,99.99
2018-05-06T06:13:55.943Z,99.99
2018-05-06T06:14:55.674Z,99.99
2018-05-06T06:15:55.922Z,99.99
2018-05-06T06:16:55.909Z,99.99
2018-05-06T06:17:55.642Z,99.99
2018-05-06T06:18:55.885Z,99.99
2018-05-06T06:19:55.918Z,99.99
2018-05-06T06:20:55.867Z,99.99
2018-05-06T06:21:55.854Z,99.99
2018-05-06T06:22:55.583Z,99.99
2018-05-06T06:23:55.831Z,99.99
2018-05-06T06:24:55.821Z,99.99
2018-05-06T06:25:55.808Z,99.99
2018-05-06T06:26:55.799Z,99.99
2018-05-06T06:27:55.787Z,99.99
2018-05-06T06:28:55.774Z,99.99
2018-05-06T06:29:55.766Z,99.99
2018-05-06T06:30:55.759Z,99.99
2018-05-06T06:31:55.746Z,99.99
2018-05-06T06:32:55.526Z,99.99
2018-05-06T06:33:55.466Z,99.99
2018-05-06T06:34:55.722Z,99.99
2018-05-06T06:35:55.710Z,99.99
2018-05-06T06:36:55.688Z,99.99
2018-05-06T06:37:55.680Z,99.99
2018-05-06T06:38:55.413Z,99.99
2018-05-06T06:39:55.660Z,99.99
2018-05-06T06:40:55.398Z,99.13
2018-05-06T06:41:55.384Z,96.46
2018-05-06T06:42:55.631Z,93.79
2018-05-06T06:43:55.370Z,90.17
2018-05-06T06:44:55.616Z,84.29
2018-05-06T06:45:55.609Z,79.17
2018-05-06T06:46:55.594Z,72.08
2018-05-06T06:47:55.404Z,65.65
2018-05-06T06:48:55.581Z,57.86
2018-05-06T06:49:55.313Z,52.26
2018-05-06T06:50:55.305Z,47.61
2018-05-06T06:51:55.298Z,43.88
2018-05-06T06:52:55.292Z,42.94
2018-05-06T06:53:55.544Z,41.83
2018-05-06T06:54:55.278Z,40.51
2018-05-06T06:55:55.530Z,37.64
2018-05-06T06:56:55.534Z,36.6
2018-05-06T06:57:55.268Z,36.21
2018-05-06T06:58:55.519Z,33.82
2018-05-06T06:59:55.257Z,33.55
2018-05-06T07:00:55.510Z,33.76
2018-05-06T07:01:55.249Z,32.04
2018-05-06T07:02:55.246Z,31.48
2018-05-06T07:03:55.520Z,28.88
2018-05-06T07:04:55.499Z,29.56
2018-05-06T07:05:55.325Z,28.78
2018-05-06T07:06:55.500Z,28.22
2018-05-06T07:07:55.235Z,28.7
2018-05-06T07:08:55.234Z,28.14
2018-05-06T07:09:55.230Z,26.88
2018-05-06T07:10:55.231Z,28.14
2018-05-06T07:11:55.496Z,28.72
2018-05-06T07:12:55.228Z,27.75
2018-05-06T07:13:55.490Z,26.79
2018-05-06T07:14:55.228Z,25.74
2018-05-06T07:15:55.485Z,26.52
2018-05-06T07:16:55.236Z,26.52
2018-05-06T07:17:55.227Z,26.73
2018-05-06T07:18:55.229Z,24.22
2018-05-06T07:19:55.488Z,25.09
2018-05-06T07:20:55.494Z,24.9
2018-05-06T07:21:55.230Z,24.41
2018-05-06T07:22:55.231Z,23.65
2018-05-06T07:23:55.234Z,25.3
2018-05-06T07:24:55.582Z,23.85
2018-05-06T07:25:55.497Z,23.85
2018-05-06T07:26:55.238Z,24.23
2018-05-06T07:27:55.496Z,23.46
2018-05-06T07:28:55.242Z,22.3
2018-05-06T07:29:55.330Z,22.86
2018-05-06T07:30:55.244Z,22.96
2018-05-06T07:31:55.504Z,23.74
2018-05-06T07:32:55.250Z,22.67
2018-05-06T07:33:55.251Z,23.33
2018-05-06T07:34:55.252Z,23.82
2018-05-06T07:35:55.659Z,24.01
2018-05-06T07:36:55.522Z,23.81
2018-05-06T07:37:55.515Z,23.81
2018-05-06T07:38:55.259Z,24.39
2018-05-06T07:39:55.522Z,24.49
2018-05-06T07:40:55.263Z,24.01
2018-05-06T07:41:55.520Z,23.42
2018-05-06T07:42:55.264Z,24.39
2018-05-06T07:43:55.521Z,24.21
2018-05-06T07:44:55.533Z,24.8
2018-05-06T07:45:55.523Z,23.64
2018-05-06T07:46:55.269Z,24.6
2018-05-06T07:47:55.269Z,24.6
2018-05-06T07:48:55.276Z,25.16
2018-05-06T07:49:55.269Z,26.68
2018-05-06T07:50:55.527Z,27.73
2018-05-06T07:51:55.529Z,28.4
2018-05-06T07:52:55.268Z,29.06
2018-05-06T07:53:55.533Z,28.95
2018-05-06T07:54:55.527Z,30.19
2018-05-06T07:55:55.528Z,30.67
2018-05-06T07:56:55.531Z,32.09
2018-05-06T07:57:55.526Z,32.28
2018-05-06T07:58:55.287Z,32.25
2018-05-06T07:59:55.536Z,33.39
2018-05-06T08:00:55.263Z,34.43
2018-05-06T08:01:55.517Z,36.91
2018-05-06T08:02:55.518Z,37.95
2018-05-06T08:03:55.407Z,37.84
2018-05-06T08:04:55.516Z,39.08
2018-05-06T08:05:55.255Z,40.7
2018-05-06T08:06:55.511Z,41.08
2018-05-06T08:07:55.505Z,39.54
2018-05-06T08:08:55.503Z,40.77
2018-05-06T08:09:55.247Z,41.54
2018-05-06T08:10:55.708Z,41.35
2018-05-06T08:11:55.506Z,40.67
2018-05-06T08:12:55.245Z,42.02
2018-05-06T08:13:55.237Z,42.86
2018-05-06T08:14:55.490Z,42.29
2018-05-06T08:15:55.229Z,42.47
2018-05-06T08:16:55.235Z,42.86
2018-05-06T08:17:55.224Z,44.47
2018-05-06T08:18:55.226Z,43.03
2018-05-06T08:19:55.475Z,42.74
2018-05-06T08:20:55.275Z,42.94
2018-05-06T08:21:55.630Z,43.7
2018-05-06T08:22:55.468Z,43.73
2018-05-06T08:23:55.206Z,45.93
2018-05-06T08:24:55.461Z,43.91
2018-05-06T08:25:55.198Z,44.97
2018-05-06T08:26:55.453Z,44.01
2018-05-06T08:27:55.191Z,44.11
2018-05-06T08:28:55.453Z,44.59
2018-05-06T08:29:55.184Z,43.82
2018-05-06T08:30:55.180Z,43.15
2018-05-06T08:31:55.437Z,42.02
2018-05-06T08:32:55.437Z,42.86
2018-05-06T08:33:55.170Z,41.73
2018-05-06T08:34:55.428Z,42.77
2018-05-06T08:35:55.425Z,43.05
2018-05-06T08:36:55.159Z,44.11
2018-05-06T08:37:55.156Z,42.57
2018-05-06T08:38:55.408Z,42.19
2018-05-06T08:39:55.151Z,41.52
2018-05-06T08:40:55.403Z,41.35
2018-05-06T08:41:55.397Z,42.69
2018-05-06T08:42:55.401Z,43.07
2018-05-06T08:43:55.135Z,43.27
2018-05-06T08:44:55.388Z,42.3
2018-05-06T08:45:55.526Z,40.96
2018-05-06T08:46:55.124Z,41.06
2018-05-06T08:47:55.376Z,41.73
2018-05-06T08:48:55.379Z,42.79
2018-05-06T08:49:55.376Z,41.44
2018-05-06T08:50:55.380Z,42.98
2018-05-06T08:51:55.104Z,40.67
2018-05-06T08:52:55.104Z,41.25
2018-05-06T08:53:55.098Z,43.74
2018-05-06T08:54:55.096Z,42.6
2018-05-06T08:55:55.093Z,40.1
2018-05-06T08:56:55.353Z,40
2018-05-06T08:57:55.348Z,41.35
2018-05-06T08:58:55.346Z,40.29
2018-05-06T08:59:55.334Z,40.1
2018-05-06T09:00:55.340Z,40.77
2018-05-06T09:01:55.332Z,38.56
2018-05-06T09:02:55.329Z,37.22
2018-05-06T09:03:55.066Z,38.28
2018-05-06T09:04:55.061Z,38.49
2018-05-06T09:05:55.317Z,40.5
2018-05-06T09:06:55.053Z,40.22
2018-05-06T09:07:55.307Z,39.16
2018-05-06T09:08:55.307Z,37.82
2018-05-06T09:09:55.302Z,39.35
2018-05-06T09:10:55.296Z,39.16
2018-05-06T09:11:55.041Z,37.93
2018-05-06T09:12:55.295Z,36.97
2018-05-06T09:13:55.030Z,37.45
2018-05-06T09:14:55.287Z,38.02
2018-05-06T09:15:55.025Z,37.35
2018-05-06T09:16:55.275Z,36.95
2018-05-06T09:17:55.275Z,36.68
2018-05-06T09:18:55.270Z,36.38
2018-05-06T09:19:55.386Z,35.22
2018-05-06T09:20:55.266Z,37.62
2018-05-06T09:21:55.262Z,37.24
2018-05-06T09:22:55.259Z,38.2
2018-05-06T09:23:55.254Z,37.62
2018-05-06T09:24:54.994Z,37.93
2018-05-06T09:25:55.249Z,37.91
2018-05-06T09:26:54.987Z,38.01
2018-05-06T09:27:54.989Z,37.34
2018-05-06T09:28:55.237Z,38.39
2018-05-06T09:29:55.236Z,38.96
2018-05-06T09:30:55.231Z,38.7
2018-05-06T09:31:55.230Z,38.41
2018-05-06T09:32:55.222Z,38.89
2018-05-06T09:33:54.964Z,39.66
2018-05-06T09:34:55.223Z,40.99
2018-05-06T09:35:55.216Z,42.9
2018-05-06T09:36:55.213Z,44.56
2018-05-06T09:37:55.207Z,43.88
2018-05-06T09:38:55.207Z,42.93
2018-05-06T09:39:54.944Z,43.7
2018-05-06T09:40:55.199Z,42.25
2018-05-06T09:41:54.943Z,41.46
2018-05-06T09:42:55.197Z,42.52
2018-05-06T09:43:55.192Z,43.96
2018-05-06T09:44:55.192Z,45.4
2018-05-06T09:45:55.183Z,44.34
2018-05-06T09:46:54.922Z,46.45
2018-05-06T09:47:54.941Z,43.96
2018-05-06T09:48:54.920Z,43.87
2018-05-06T09:49:55.167Z,45.4
2018-05-06T09:50:55.165Z,47.44
2018-05-06T09:51:55.164Z,44.17
2018-05-06T09:52:55.160Z,44.46
2018-05-06T09:53:55.235Z,44.84
2018-05-06T09:54:55.164Z,45.04
2018-05-06T09:55:54.893Z,46.45
2018-05-06T09:56:54.890Z,46.48
2018-05-06T09:57:55.141Z,43.88
2018-05-06T09:58:55.141Z,43.79
2018-05-06T09:59:54.879Z,47.15
2018-05-06T10:00:54.878Z,44.94
2018-05-06T10:01:54.876Z,46.26
2018-05-06T10:02:55.128Z,46.19
2018-05-06T10:03:54.868Z,44.17
2018-05-06T10:04:55.196Z,43.79
2018-05-06T10:05:55.116Z,42.73
2018-05-06T10:06:55.115Z,43.21
2018-05-06T10:07:54.854Z,43.98
2018-05-06T10:08:55.107Z,43.88
2018-05-06T10:09:55.109Z,42.93
2018-05-06T10:10:55.103Z,44.27
2018-05-06T10:11:55.099Z,46.07
2018-05-06T10:12:55.097Z,44.73
2018-05-06T10:13:55.094Z,45.61
2018-05-06T10:14:55.099Z,42.54
2018-05-06T10:15:55.360Z,44.65
2018-05-06T10:16:55.084Z,45.98
2018-05-06T10:17:55.080Z,45.5
2018-05-06T10:18:55.076Z,45.21
2018-05-06T10:19:55.077Z,44.92
2018-05-06T10:20:55.069Z,46.84
2018-05-06T10:21:55.072Z,47.99
2018-05-06T10:22:55.062Z,46.45
2018-05-06T10:23:55.063Z,47.92
2018-05-06T10:24:55.076Z,46.74
2018-05-06T10:25:55.055Z,46
2018-05-06T10:26:55.051Z,46
2018-05-06T10:27:55.050Z,47.13
2018-05-06T10:28:54.787Z,45.98
2018-05-06T10:29:55.043Z,47.72
2018-05-06T10:30:55.040Z,47.53
2018-05-06T10:31:55.034Z,48.59
2018-05-06T10:32:55.033Z,47.15
2018-05-06T10:33:55.028Z,45.61
2018-05-06T10:34:54.768Z,46.58
2018-05-06T10:35:54.765Z,46.48
2018-05-06T10:36:55.017Z,44.56
2018-05-06T10:37:54.757Z,44.75
2018-05-06T10:38:55.012Z,46.19
2018-05-06T10:39:55.009Z,46.96
2018-05-06T10:40:54.748Z,45.23
2018-05-06T10:41:54.744Z,45.42
2018-05-06T10:42:55.000Z,46.86
2018-05-06T10:43:54.759Z,46.96
2018-05-06T10:44:54.740Z,47.25
2018-05-06T10:45:55.013Z,47.05
2018-05-06T10:46:54.730Z,46.09
2018-05-06T10:47:54.984Z,46.86
2018-05-06T10:48:54.723Z,43.98
2018-05-06T10:49:54.725Z,44.27
2018-05-06T10:50:55.024Z,43.02
2018-05-06T10:51:54.973Z,43.98
2018-05-06T10:52:54.969Z,45.52
2018-05-06T10:53:54.965Z,46.09
2018-05-06T10:54:54.962Z,47.25
2018-05-06T10:55:54.958Z,46.86
2018-05-06T10:56:54.955Z,45.71
2018-05-06T10:57:54.766Z,44.94
2018-05-06T10:58:54.696Z,42.83
2018-05-06T10:59:54.945Z,43.5
2018-05-06T11:00:54.686Z,45.14
2018-05-06T11:01:54.939Z,46.96
2018-05-06T11:02:54.936Z,45.23
2018-05-06T11:03:55.011Z,43.88
2018-05-06T11:04:54.930Z,43.79
2018-05-06T11:05:54.674Z,43.31
2018-05-06T11:06:54.924Z,41.67
2018-05-06T11:07:54.930Z,43.21
2018-05-06T11:08:54.916Z,44.37
2018-05-06T11:09:54.657Z,45.61
2018-05-06T11:10:54.912Z,46
2018-05-06T11:11:54.908Z,47.34
2018-05-06T11:12:54.648Z,46.96
2018-05-06T11:13:54.649Z,45.32
2018-05-06T11:14:54.898Z,45.81
2018-05-06T11:15:54.896Z,46.28
2018-05-06T11:16:54.896Z,43.88
2018-05-06T11:17:55.059Z,43.98
2018-05-06T11:18:54.885Z,43.98
2018-05-06T11:19:54.882Z,43.88
2018-05-06T11:20:54.881Z,45.14
2018-05-06T11:21:54.877Z,46.38
2018-05-06T11:22:54.874Z,43.21
2018-05-06T11:23:54.878Z,43.88
2018-05-06T11:24:54.609Z,43.4
2018-05-06T11:25:54.865Z,42.54
2018-05-06T11:26:54.605Z,42.73
2018-05-06T11:27:54.858Z,42.25
2018-05-06T11:28:54.858Z,42.73
2018-05-06T11:29:54.851Z,43.98
2018-05-06T11:30:54.848Z,45.88
2018-05-06T11:31:54.850Z,43.98
2018-05-06T11:32:54.843Z,46.19
2018-05-06T11:33:54.845Z,43.4
2018-05-06T11:34:54.870Z,44.94
2018-05-06T11:35:54.834Z,43.98
2018-05-06T11:36:54.829Z,44.94
2018-05-06T11:37:54.828Z,43.12
2018-05-06T11:38:54.825Z,42.93
2018-05-06T11:39:54.819Z,46.09
2018-05-06T11:40:54.602Z,43.88
2018-05-06T11:41:54.815Z,43.02
2018-05-06T11:42:54.811Z,43.88
2018-05-06T11:43:54.552Z,42.83
2018-05-06T11:44:54.816Z,43.02
2018-05-06T11:45:54.803Z,42.73
2018-05-06T11:46:54.541Z,43.87
2018-05-06T11:47:54.798Z,44.63
2018-05-06T11:48:54.793Z,45.71
2018-05-06T11:49:54.789Z,46.19
2018-05-06T11:50:54.786Z,46.38
2018-05-06T11:51:54.792Z,46.09
2018-05-06T11:52:54.527Z,45.9
2018-05-06T11:53:54.783Z,43.4
2018-05-06T11:54:54.782Z,44.37
2018-05-06T11:55:54.772Z,44.56
2018-05-06T11:56:54.769Z,45.32
2018-05-06T11:57:54.764Z,45.71
2018-05-06T11:58:54.506Z,44.56
2018-05-06T11:59:54.759Z,43.81
2018-05-06T12:00:54.763Z,43.81
2018-05-06T12:01:54.496Z,45.15
2018-05-06T12:02:54.753Z,46
2018-05-06T12:03:54.492Z,46.41
2018-05-06T12:04:54.489Z,43.33
2018-05-06T12:05:54.485Z,44.2
2018-05-06T12:06:54.741Z,44.75
2018-05-06T12:07:54.480Z,47.05
2018-05-06T12:08:54.484Z,47.44
2018-05-06T12:09:54.743Z,46.77
2018-05-06T12:10:54.471Z,46.02
2018-05-06T12:11:54.724Z,47.75
2018-05-06T12:12:54.729Z,47.46
2018-05-06T12:13:54.721Z,46.69
2018-05-06T12:14:54.721Z,46.59
2018-05-06T12:15:54.810Z,47.25
2018-05-06T12:16:54.711Z,50.03
2018-05-06T12:17:54.714Z,47.66
2018-05-06T12:18:54.449Z,45.64
2018-05-06T12:19:54.444Z,48.69
2018-05-06T12:20:54.699Z,47.05
2018-05-06T12:21:54.758Z,47.63
2018-05-06T12:22:54.693Z,48.97
2018-05-06T12:23:54.698Z,48.02
2018-05-06T12:24:54.687Z,47.92
2018-05-06T12:25:54.689Z,47.27
2018-05-06T12:26:54.424Z,47.72
2018-05-06T12:27:54.679Z,48.59
2018-05-06T12:28:54.675Z,49.36
2018-05-06T12:29:54.416Z,45.61
2018-05-06T12:30:54.671Z,48.97
2018-05-06T12:31:54.667Z,49.46
2018-05-06T12:32:54.407Z,48.59
2018-05-06T12:33:54.407Z,48.21
2018-05-06T12:34:54.658Z,46.58
2018-05-06T12:35:54.659Z,47.34
2018-05-06T12:36:54.396Z,47.72
2018-05-06T12:37:54.650Z,46.38
2018-05-06T12:38:54.648Z,47.53
2018-05-06T12:39:54.648Z,50.03
2018-05-06T12:40:54.653Z,47.53
2018-05-06T12:41:54.643Z,45.32
2018-05-06T12:42:54.380Z,46.38
2018-05-06T12:43:54.634Z,47.92
2018-05-06T12:44:54.630Z,47.25
2018-05-06T12:45:54.631Z,48.59
2018-05-06T12:46:54.623Z,47.63
2018-05-06T12:47:54.363Z,49.93
2018-05-06T12:48:54.616Z,46.58
2018-05-06T12:49:54.612Z,45.71
2018-05-06T12:50:54.613Z,46.48
2018-05-06T12:51:54.608Z,47.15
2018-05-06T12:52:54.348Z,46.38
2018-05-06T12:53:54.602Z,49.84
2018-05-06T12:54:54.600Z,47.15
2018-05-06T12:55:54.340Z,48.02